sensor_id;sensor_type;location;lat;lon;timestamp;pressure;altitude;pressure_sealevel;temperature;humidity
39141;BME280;24875;48.436;10.298;2023-08-07T00:00:05;96015.84;;;13.44;100.00
39141;BME280;24875;48.436;10.298;2023-08-07T00:02:34;96020.13;;;13.38;100.00
39141;BME280;24875;48.436;10.298;2023-08-07T00:05:02;96017.13;;;13.54;100.00
39141;BME280;24875;48.436;10.298;2023-08-07T00:07:29;96015.56;;;13.20;100.00
39141;BME280;24875;48.436;10.298;2023-08-07T00:09:55;96014.97;;;13.18;100.00
39141;BME280;24875;48.436;10.298;2023-08-07T00:12:22;96014.16;;;13.24;100.00
39141;BME280;24875;48.436;10.298;2023-08-07T00:14:50;96018.88;;;13.35;100.00
39141;BME280;24875;48.436;10.298;2023-08-07T00:17:16;96013.50;;;13.09;100.00
39141;BME280;24875;48.436;10.298;2023-08-07T00:19:43;96021.28;;;13.23;100.00
39141;BME280;24875;48.436;10.298;2023-08-07T00:22:11;96012.16;;;13.38;100.00
39141;BME280;24875;48.436;10.298;2023-08-07T00:24:37;96016.84;;;13.30;100.00
39141;BME280;24875;48.436;10.298;2023-08-07T00:27:04;96015.00;;;13.24;100.00
39141;BME280;24875;48.436;10.298;2023-08-07T00:29:31;96009.03;;;13.16;100.00
39141;BME280;24875;48.436;10.298;2023-08-07T00:31:58;96013.72;;;13.14;100.00
39141;BME280;24875;48.436;10.298;2023-08-07T00:34:25;96012.50;;;13.10;100.00
39141;BME280;24875;48.436;10.298;2023-08-07T00:36:51;96015.31;;;13.08;100.00
39141;BME280;24875;48.436;10.298;2023-08-07T00:39:19;96011.59;;;13.43;100.00
39141;BME280;24875;48.436;10.298;2023-08-07T00:41:46;96013.59;;;13.35;100.00
39141;BME280;24875;48.436;10.298;2023-08-07T00:44:13;96011.13;;;13.27;100.00
39141;BME280;24875;48.436;10.298;2023-08-07T00:46:39;96011.16;;;13.33;100.00
39141;BME280;24875;48.436;10.298;2023-08-07T00:49:06;96012.19;;;13.45;100.00
39141;BME280;24875;48.436;10.298;2023-08-07T00:51:33;96014.13;;;13.17;100.00
39141;BME280;24875;48.436;10.298;2023-08-07T00:54:02;96013.41;;;13.42;100.00
39141;BME280;24875;48.436;10.298;2023-08-07T00:56:31;96014.03;;;13.38;100.00
39141;BME280;24875;48.436;10.298;2023-08-07T00:58:58;96016.00;;;13.30;100.00
39141;BME280;24875;48.436;10.298;2023-08-07T01:01:24;96017.66;;;13.31;100.00
39141;BME280;24875;48.436;10.298;2023-08-07T01:03:51;96021.50;;;13.22;100.00
39141;BME280;24875;48.436;10.298;2023-08-07T01:06:18;96017.84;;;13.29;100.00
39141;BME280;24875;48.436;10.298;2023-08-07T01:08:45;96019.66;;;13.29;100.00
39141;BME280;24875;48.436;10.298;2023-08-07T01:11:20;96019.78;;;13.61;100.00
39141;BME280;24875;48.436;10.298;2023-08-07T01:13:54;96021.00;;;13.58;100.00
39141;BME280;24875;48.436;10.298;2023-08-07T01:16:28;96019.97;;;13.59;100.00
39141;BME280;24875;48.436;10.298;2023-08-07T01:19:00;96028.28;;;13.43;100.00
39141;BME280;24875;48.436;10.298;2023-08-07T01:21:28;96035.00;;;13.39;100.00
39141;BME280;24875;48.436;10.298;2023-08-07T01:23:56;96031.34;;;13.47;100.00
39141;BME280;24875;48.436;10.298;2023-08-07T01:26:22;96028.69;;;13.40;100.00
39141;BME280;24875;48.436;10.298;2023-08-07T01:28:54;96036.47;;;13.61;100.00
39141;BME280;24875;48.436;10.298;2023-08-07T01:31:26;96027.09;;;13.59;100.00
39141;BME280;24875;48.436;10.298;2023-08-07T01:34:00;96027.53;;;13.69;100.00
39141;BME280;24875;48.436;10.298;2023-08-07T01:36:29;96036.25;;;13.56;100.00
39141;BME280;24875;48.436;10.298;2023-08-07T01:38:59;96025.66;;;13.56;100.00
39141;BME280;24875;48.436;10.298;2023-08-07T01:41:26;96028.69;;;13.40;100.00
39141;BME280;24875;48.436;10.298;2023-08-07T01:43:54;96035.56;;;13.35;100.00
39141;BME280;24875;48.436;10.298;2023-08-07T01:46:20;96041.66;;;13.29;100.00
39141;BME280;24875;48.436;10.298;2023-08-07T01:48:47;96039.41;;;13.26;100.00
39141;BME280;24875;48.436;10.298;2023-08-07T01:51:13;96038.16;;;13.16;100.00
39141;BME280;24875;48.436;10.298;2023-08-07T01:53:40;96026.97;;;13.14;100.00
39141;BME280;24875;48.436;10.298;2023-08-07T01:56:08;96036.75;;;13.26;100.00
39141;BME280;24875;48.436;10.298;2023-08-07T01:58:34;96052.59;;;13.20;100.00
39141;BME280;24875;48.436;10.298;2023-08-07T02:01:01;96044.06;;;13.18;100.00
39141;BME280;24875;48.436;10.298;2023-08-07T02:03:27;96044.53;;;13.28;100.00
39141;BME280;24875;48.436;10.298;2023-08-07T02:05:54;96051.06;;;13.32;100.00
39141;BME280;24875;48.436;10.298;2023-08-07T02:08:20;96045.34;;;13.35;100.00
39141;BME280;24875;48.436;10.298;2023-08-07T02:10:47;96047.78;;;13.36;100.00
39141;BME280;24875;48.436;10.298;2023-08-07T02:13:14;96046.25;;;13.61;100.00
39141;BME280;24875;48.436;10.298;2023-08-07T02:15:41;96046.59;;;13.38;100.00
39141;BME280;24875;48.436;10.298;2023-08-07T02:18:07;96050.22;;;13.31;100.00
39141;BME280;24875;48.436;10.298;2023-08-07T02:20:34;96050.22;;;13.38;100.00
39141;BME280;24875;48.436;10.298;2023-08-07T02:23:00;96060.03;;;13.43;100.00
39141;BME280;24875;48.436;10.298;2023-08-07T02:25:27;96058.97;;;13.25;100.00
39141;BME280;24875;48.436;10.298;2023-08-07T02:27:53;96061.97;;;13.22;100.00
39141;BME280;24875;48.436;10.298;2023-08-07T02:30:21;96053.50;;;13.39;100.00
39141;BME280;24875;48.436;10.298;2023-08-07T02:32:48;96056.28;;;13.19;100.00
39141;BME280;24875;48.436;10.298;2023-08-07T02:35:15;96051.66;;;13.34;100.00
39141;BME280;24875;48.436;10.298;2023-08-07T02:37:41;96061.22;;;13.35;100.00
39141;BME280;24875;48.436;10.298;2023-08-07T02:40:09;96061.00;;;13.30;100.00
39141;BME280;24875;48.436;10.298;2023-08-07T02:42:36;96057.91;;;13.20;100.00
39141;BME280;24875;48.436;10.298;2023-08-07T02:45:03;96050.81;;;13.27;100.00
39141;BME280;24875;48.436;10.298;2023-08-07T02:47:31;96065.31;;;13.37;100.00
39141;BME280;24875;48.436;10.298;2023-08-07T02:49:58;96067.72;;;13.32;100.00
39141;BME280;24875;48.436;10.298;2023-08-07T02:52:24;96064.44;;;13.24;100.00
39141;BME280;24875;48.436;10.298;2023-08-07T02:54:51;96082.78;;;13.25;100.00
39141;BME280;24875;48.436;10.298;2023-08-07T02:57:17;96074.66;;;13.33;100.00
39141;BME280;24875;48.436;10.298;2023-08-07T02:59:44;96079.31;;;13.31;100.00
39141;BME280;24875;48.436;10.298;2023-08-07T03:02:10;96082.91;;;13.17;100.00
39141;BME280;24875;48.436;10.298;2023-08-07T03:04:38;96081.59;;;13.34;100.00
39141;BME280;24875;48.436;10.298;2023-08-07T03:07:05;96091.34;;;13.34;100.00
39141;BME280;24875;48.436;10.298;2023-08-07T03:09:31;96087.41;;;13.17;100.00
39141;BME280;24875;48.436;10.298;2023-08-07T03:11:58;96089.34;;;13.36;100.00
39141;BME280;24875;48.436;10.298;2023-08-07T03:14:28;96090.09;;;13.23;100.00
39141;BME280;24875;48.436;10.298;2023-08-07T03:16:54;96092.59;;;13.38;100.00
39141;BME280;24875;48.436;10.298;2023-08-07T03:19:21;96095.19;;;13.31;100.00
39141;BME280;24875;48.436;10.298;2023-08-07T03:21:49;96093.81;;;13.41;100.00
39141;BME280;24875;48.436;10.298;2023-08-07T03:24:15;96103.13;;;13.25;100.00
39141;BME280;24875;48.436;10.298;2023-08-07T03:26:42;96103.56;;;13.35;100.00
39141;BME280;24875;48.436;10.298;2023-08-07T03:29:09;96108.50;;;13.44;100.00
39141;BME280;24875;48.436;10.298;2023-08-07T03:31:36;96108.09;;;13.40;100.00
39141;BME280;24875;48.436;10.298;2023-08-07T03:34:02;96105.81;;;13.38;100.00
39141;BME280;24875;48.436;10.298;2023-08-07T03:36:29;96113.94;;;13.30;100.00
39141;BME280;24875;48.436;10.298;2023-08-07T03:38:57;96113.22;;;13.55;100.00
39141;BME280;24875;48.436;10.298;2023-08-07T03:41:23;96118.22;;;13.31;100.00
39141;BME280;24875;48.436;10.298;2023-08-07T03:43:50;96125.38;;;13.37;100.00
39141;BME280;24875;48.436;10.298;2023-08-07T03:46:16;96130.59;;;13.24;100.00
39141;BME280;24875;48.436;10.298;2023-08-07T03:48:43;96122.63;;;13.24;100.00
39141;BME280;24875;48.436;10.298;2023-08-07T03:51:09;96125.75;;;13.34;100.00
39141;BME280;24875;48.436;10.298;2023-08-07T03:53:36;96129.63;;;13.38;100.00
39141;BME280;24875;48.436;10.298;2023-08-07T03:56:04;96140.09;;;13.45;100.00
39141;BME280;24875;48.436;10.298;2023-08-07T03:58:31;96142.81;;;13.25;100.00
39141;BME280;24875;48.436;10.298;2023-08-07T04:00:57;96147.41;;;13.10;100.00
39141;BME280;24875;48.436;10.298;2023-08-07T04:03:24;96136.91;;;13.23;100.00
39141;BME280;24875;48.436;10.298;2023-08-07T04:05:52;96147.13;;;13.32;100.00
39141;BME280;24875;48.436;10.298;2023-08-07T04:08:19;96147.84;;;13.20;100.00
39141;BME280;24875;48.436;10.298;2023-08-07T04:10:56;96148.72;;;13.27;100.00
39141;BME280;24875;48.436;10.298;2023-08-07T04:13:25;96155.69;;;13.34;100.00
39141;BME280;24875;48.436;10.298;2023-08-07T04:15:51;96155.66;;;13.28;100.00
39141;BME280;24875;48.436;10.298;2023-08-07T04:18:18;96161.88;;;13.14;100.00
39141;BME280;24875;48.436;10.298;2023-08-07T04:20:48;96148.94;;;13.25;100.00
39141;BME280;24875;48.436;10.298;2023-08-07T04:23:15;96146.13;;;13.33;100.00
39141;BME280;24875;48.436;10.298;2023-08-07T04:25:41;96146.69;;;13.29;100.00
39141;BME280;24875;48.436;10.298;2023-08-07T04:28:08;96151.38;;;13.27;100.00
39141;BME280;24875;48.436;10.298;2023-08-07T04:30:36;96155.69;;;13.34;100.00
39141;BME280;24875;48.436;10.298;2023-08-07T04:33:02;96169.03;;;13.20;100.00
39141;BME280;24875;48.436;10.298;2023-08-07T04:35:30;96163.69;;;13.13;100.00
39141;BME280;24875;48.436;10.298;2023-08-07T04:37:56;96165.63;;;13.26;100.00
39141;BME280;24875;48.436;10.298;2023-08-07T04:40:23;96157.34;;;13.41;100.00
39141;BME280;24875;48.436;10.298;2023-08-07T04:42:49;96156.72;;;13.33;100.00
39141;BME280;24875;48.436;10.298;2023-08-07T04:45:16;96159.34;;;13.33;100.00
39141;BME280;24875;48.436;10.298;2023-08-07T04:47:44;96163.56;;;13.61;100.00
39141;BME280;24875;48.436;10.298;2023-08-07T04:50:11;96165.44;;;13.34;100.00
39141;BME280;24875;48.436;10.298;2023-08-07T04:52:37;96168.75;;;13.42;100.00
39141;BME280;24875;48.436;10.298;2023-08-07T04:55:05;96162.09;;;13.52;100.00
39141;BME280;24875;48.436;10.298;2023-08-07T04:57:31;96165.97;;;13.56;100.00
39141;BME280;24875;48.436;10.298;2023-08-07T04:59:58;96170.66;;;13.54;100.00
39141;BME280;24875;48.436;10.298;2023-08-07T05:02:24;96164.38;;;13.62;100.00
39141;BME280;24875;48.436;10.298;2023-08-07T05:04:52;96171.19;;;13.84;100.00
39141;BME280;24875;48.436;10.298;2023-08-07T05:07:18;96171.28;;;13.56;100.00
39141;BME280;24875;48.436;10.298;2023-08-07T05:09:45;96172.13;;;13.63;100.00
39141;BME280;24875;48.436;10.298;2023-08-07T05:12:11;96177.78;;;13.54;100.00
39141;BME280;24875;48.436;10.298;2023-08-07T05:14:38;96173.16;;;13.62;100.00
39141;BME280;24875;48.436;10.298;2023-08-07T05:17:04;96169.91;;;13.73;100.00
39141;BME280;24875;48.436;10.298;2023-08-07T05:19:31;96174.16;;;13.61;100.00
39141;BME280;24875;48.436;10.298;2023-08-07T05:21:59;96174.22;;;13.81;100.00
39141;BME280;24875;48.436;10.298;2023-08-07T05:24:28;96173.38;;;13.67;100.00
39141;BME280;24875;48.436;10.298;2023-08-07T05:26:59;96176.22;;;13.66;100.00
39141;BME280;24875;48.436;10.298;2023-08-07T05:29:26;96185.66;;;13.81;100.00
39141;BME280;24875;48.436;10.298;2023-08-07T05:31:52;96181.53;;;13.72;100.00
39141;BME280;24875;48.436;10.298;2023-08-07T05:34:19;96182.56;;;13.78;100.00
39141;BME280;24875;48.436;10.298;2023-08-07T05:36:45;96183.06;;;14.00;100.00
39141;BME280;24875;48.436;10.298;2023-08-07T05:39:13;96188.22;;;14.15;100.00
39141;BME280;24875;48.436;10.298;2023-08-07T05:41:40;96186.72;;;13.99;100.00
39141;BME280;24875;48.436;10.298;2023-08-07T05:44:06;96191.56;;;13.83;100.00
39141;BME280;24875;48.436;10.298;2023-08-07T05:46:33;96198.75;;;13.96;100.00
39141;BME280;24875;48.436;10.298;2023-08-07T05:48:59;96200.69;;;13.74;100.00
39141;BME280;24875;48.436;10.298;2023-08-07T05:51:26;96195.47;;;14.00;100.00
39141;BME280;24875;48.436;10.298;2023-08-07T05:53:52;96208.47;;;14.29;100.00
39141;BME280;24875;48.436;10.298;2023-08-07T05:56:20;96209.66;;;14.26;100.00
39141;BME280;24875;48.436;10.298;2023-08-07T05:58:46;96212.31;;;14.26;100.00
39141;BME280;24875;48.436;10.298;2023-08-07T06:01:13;96221.06;;;14.20;100.00
39141;BME280;24875;48.436;10.298;2023-08-07T06:03:42;96218.84;;;14.24;100.00
39141;BME280;24875;48.436;10.298;2023-08-07T06:06:08;96224.13;;;14.17;100.00
39141;BME280;24875;48.436;10.298;2023-08-07T06:08:35;96226.19;;;14.22;100.00
39141;BME280;24875;48.436;10.298;2023-08-07T06:11:01;96219.69;;;14.31;100.00
39141;BME280;24875;48.436;10.298;2023-08-07T06:13:31;96220.75;;;14.62;100.00
39141;BME280;24875;48.436;10.298;2023-08-07T06:15:58;96235.19;;;14.40;100.00
39141;BME280;24875;48.436;10.298;2023-08-07T06:18:24;96225.81;;;14.44;100.00
39141;BME280;24875;48.436;10.298;2023-08-07T06:20:51;96229.25;;;14.25;100.00
39141;BME280;24875;48.436;10.298;2023-08-07T06:23:17;96230.09;;;14.39;100.00
39141;BME280;24875;48.436;10.298;2023-08-07T06:25:44;96231.72;;;14.27;100.00
39141;BME280;24875;48.436;10.298;2023-08-07T06:28:10;96230.34;;;14.63;100.00
39141;BME280;24875;48.436;10.298;2023-08-07T06:30:39;96226.28;;;14.61;100.00
39141;BME280;24875;48.436;10.298;2023-08-07T06:33:05;96220.16;;;14.54;100.00
39141;BME280;24875;48.436;10.298;2023-08-07T06:35:37;96224.25;;;14.63;100.00
39141;BME280;24875;48.436;10.298;2023-08-07T06:38:03;96222.38;;;14.57;100.00
39141;BME280;24875;48.436;10.298;2023-08-07T06:40:30;96221.38;;;14.51;100.00
39141;BME280;24875;48.436;10.298;2023-08-07T06:42:57;96233.56;;;14.39;100.00
39141;BME280;24875;48.436;10.298;2023-08-07T06:45:23;96227.88;;;14.49;100.00
39141;BME280;24875;48.436;10.298;2023-08-07T06:47:52;96238.09;;;14.64;100.00
39141;BME280;24875;48.436;10.298;2023-08-07T06:50:18;96226.25;;;14.48;100.00
39141;BME280;24875;48.436;10.298;2023-08-07T06:52:45;96221.34;;;14.45;100.00
39141;BME280;24875;48.436;10.298;2023-08-07T06:55:11;96235.25;;;14.60;100.00
39141;BME280;24875;48.436;10.298;2023-08-07T06:57:38;96235.47;;;14.71;100.00
39141;BME280;24875;48.436;10.298;2023-08-07T07:00:06;96236.47;;;14.76;100.00
39141;BME280;24875;48.436;10.298;2023-08-07T07:02:33;96229.56;;;14.75;100.00
39141;BME280;24875;48.436;10.298;2023-08-07T07:05:04;96243.84;;;15.13;100.00
39141;BME280;24875;48.436;10.298;2023-08-07T07:07:31;96245.69;;;14.93;100.00
39141;BME280;24875;48.436;10.298;2023-08-07T07:09:57;96241.81;;;14.96;98.48
39141;BME280;24875;48.436;10.298;2023-08-07T07:12:25;96244.28;;;14.91;98.41
39141;BME280;24875;48.436;10.298;2023-08-07T07:14:52;96260.59;;;14.94;99.53
39141;BME280;24875;48.436;10.298;2023-08-07T07:17:19;96253.03;;;15.11;100.00
39141;BME280;24875;48.436;10.298;2023-08-07T07:19:45;96246.28;;;14.76;95.99
39141;BME280;24875;48.436;10.298;2023-08-07T07:22:13;96241.41;;;14.92;94.27
39141;BME280;24875;48.436;10.298;2023-08-07T07:24:40;96256.91;;;14.89;96.05
39141;BME280;24875;48.436;10.298;2023-08-07T07:27:06;96265.72;;;14.96;96.60
39141;BME280;24875;48.436;10.298;2023-08-07T07:29:33;96261.84;;;15.05;96.55
39141;BME280;24875;48.436;10.298;2023-08-07T07:31:59;96259.38;;;15.03;95.78
39141;BME280;24875;48.436;10.298;2023-08-07T07:34:26;96261.41;;;14.95;97.58
39141;BME280;24875;48.436;10.298;2023-08-07T07:36:52;96259.38;;;15.16;98.03
39141;BME280;24875;48.436;10.298;2023-08-07T07:39:21;96259.38;;;15.48;100.00
39141;BME280;24875;48.436;10.298;2023-08-07T07:41:47;96278.22;;;15.34;98.18
39141;BME280;24875;48.436;10.298;2023-08-07T07:44:14;96265.13;;;15.32;96.01
39141;BME280;24875;48.436;10.298;2023-08-07T07:46:41;96264.28;;;15.45;93.50
39141;BME280;24875;48.436;10.298;2023-08-07T07:49:07;96284.53;;;15.26;92.67
39141;BME280;24875;48.436;10.298;2023-08-07T07:51:33;96293.94;;;15.23;92.72
39141;BME280;24875;48.436;10.298;2023-08-07T07:54:02;96281.84;;;15.20;91.79
39141;BME280;24875;48.436;10.298;2023-08-07T07:56:30;96279.81;;;15.35;91.62
39141;BME280;24875;48.436;10.298;2023-08-07T07:58:56;96279.81;;;15.61;92.46
39141;BME280;24875;48.436;10.298;2023-08-07T08:01:23;96281.66;;;15.41;91.94
39141;BME280;24875;48.436;10.298;2023-08-07T08:03:49;96281.88;;;15.46;91.36
39141;BME280;24875;48.436;10.298;2023-08-07T08:06:16;96281.03;;;15.58;91.67
39141;BME280;24875;48.436;10.298;2023-08-07T08:08:43;96288.16;;;15.64;90.62
39141;BME280;24875;48.436;10.298;2023-08-07T08:11:10;96289.41;;;15.75;89.38
39141;BME280;24875;48.436;10.298;2023-08-07T08:13:37;96293.50;;;15.71;91.73
39141;BME280;24875;48.436;10.298;2023-08-07T08:16:07;96290.63;;;15.53;92.18
39141;BME280;24875;48.436;10.298;2023-08-07T08:18:33;96294.50;;;15.76;92.55
39141;BME280;24875;48.436;10.298;2023-08-07T08:21:00;96295.66;;;15.99;91.92
39141;BME280;24875;48.436;10.298;2023-08-07T08:23:26;96297.44;;;16.18;92.07
39141;BME280;24875;48.436;10.298;2023-08-07T08:25:53;96294.06;;;15.85;87.38
39141;BME280;24875;48.436;10.298;2023-08-07T08:28:19;96313.72;;;15.65;85.71
39141;BME280;24875;48.436;10.298;2023-08-07T08:30:47;96307.06;;;16.19;86.97
39141;BME280;24875;48.436;10.298;2023-08-07T08:33:14;96290.53;;;16.04;87.73
39141;BME280;24875;48.436;10.298;2023-08-07T08:35:40;96295.28;;;15.89;88.64
39141;BME280;24875;48.436;10.298;2023-08-07T08:38:08;96299.75;;;15.95;87.11
39141;BME280;24875;48.436;10.298;2023-08-07T08:40:35;96298.50;;;16.11;85.95
39141;BME280;24875;48.436;10.298;2023-08-07T08:43:04;96313.63;;;16.10;86.93
39141;BME280;24875;48.436;10.298;2023-08-07T08:45:32;96310.53;;;16.26;82.52
39141;BME280;24875;48.436;10.298;2023-08-07T08:48:03;96308.31;;;16.10;84.16
39141;BME280;24875;48.436;10.298;2023-08-07T08:50:31;96310.97;;;16.17;86.89
39141;BME280;24875;48.436;10.298;2023-08-07T08:52:58;96308.91;;;16.12;84.60
39141;BME280;24875;48.436;10.298;2023-08-07T08:55:26;96305.44;;;16.18;85.18
39141;BME280;24875;48.436;10.298;2023-08-07T08:57:53;96300.06;;;16.38;85.04
39141;BME280;24875;48.436;10.298;2023-08-07T09:00:21;96303.09;;;16.48;85.31
39141;BME280;24875;48.436;10.298;2023-08-07T09:02:49;96296.16;;;16.40;84.95
39141;BME280;24875;48.436;10.298;2023-08-07T09:05:20;96296.88;;;16.66;81.65
39141;BME280;24875;48.436;10.298;2023-08-07T09:07:46;96294.31;;;17.15;81.99
39141;BME280;24875;48.436;10.298;2023-08-07T09:10:14;96304.03;;;17.34;76.02
39141;BME280;24875;48.436;10.298;2023-08-07T09:12:45;96291.56;;;17.52;78.92
39141;BME280;24875;48.436;10.298;2023-08-07T09:15:15;96306.25;;;18.03;79.94
39141;BME280;24875;48.436;10.298;2023-08-07T09:17:43;96293.84;;;17.73;73.72
39141;BME280;24875;48.436;10.298;2023-08-07T09:20:11;96293.78;;;18.22;73.84
39141;BME280;24875;48.436;10.298;2023-08-07T09:22:41;96287.41;;;18.58;73.39
39141;BME280;24875;48.436;10.298;2023-08-07T09:25:08;96290.09;;;18.16;70.74
39141;BME280;24875;48.436;10.298;2023-08-07T09:27:36;96289.59;;;17.90;68.21
39141;BME280;24875;48.436;10.298;2023-08-07T09:30:05;96294.44;;;17.75;71.48
39141;BME280;24875;48.436;10.298;2023-08-07T09:32:33;96286.13;;;17.65;71.13
39141;BME280;24875;48.436;10.298;2023-08-07T09:35:02;96292.50;;;17.40;71.58
39141;BME280;24875;48.436;10.298;2023-08-07T09:37:28;96292.75;;;17.01;70.88
39141;BME280;24875;48.436;10.298;2023-08-07T09:39:59;96300.72;;;17.38;74.55
39141;BME280;24875;48.436;10.298;2023-08-07T09:42:30;96300.47;;;17.09;71.43
39141;BME280;24875;48.436;10.298;2023-08-07T09:44:59;96304.81;;;16.73;73.12
39141;BME280;24875;48.436;10.298;2023-08-07T09:47:27;96313.50;;;16.93;73.29
39141;BME280;24875;48.436;10.298;2023-08-07T09:49:55;96322.22;;;16.75;72.98
39141;BME280;24875;48.436;10.298;2023-08-07T09:52:21;96319.63;;;16.62;74.56
39141;BME280;24875;48.436;10.298;2023-08-07T09:54:50;96318.06;;;16.42;73.75
39141;BME280;24875;48.436;10.298;2023-08-07T09:57:19;96324.84;;;16.82;72.42
39141;BME280;24875;48.436;10.298;2023-08-07T09:59:49;96319.91;;;16.79;72.40
39141;BME280;24875;48.436;10.298;2023-08-07T10:02:16;96332.47;;;16.65;72.47
39141;BME280;24875;48.436;10.298;2023-08-07T10:04:43;96329.41;;;16.62;69.52
39141;BME280;24875;48.436;10.298;2023-08-07T10:07:10;96332.16;;;16.86;69.62
39141;BME280;24875;48.436;10.298;2023-08-07T10:09:39;96329.22;;;17.01;69.76
39141;BME280;24875;48.436;10.298;2023-08-07T10:12:07;96317.03;;;17.17;69.59
39141;BME280;24875;48.436;10.298;2023-08-07T10:14:35;96319.69;;;17.72;70.23
39141;BME280;24875;48.436;10.298;2023-08-07T10:17:02;96318.66;;;18.16;69.02
39141;BME280;24875;48.436;10.298;2023-08-07T10:19:29;96320.06;;;17.76;65.17
39141;BME280;24875;48.436;10.298;2023-08-07T10:21:56;96317.41;;;18.18;67.54
39141;BME280;24875;48.436;10.298;2023-08-07T10:24:23;96303.19;;;18.24;66.24
39141;BME280;24875;48.436;10.298;2023-08-07T10:26:51;96309.59;;;17.99;66.68
39141;BME280;24875;48.436;10.298;2023-08-07T10:29:19;96311.94;;;17.89;66.41
39141;BME280;24875;48.436;10.298;2023-08-07T10:31:48;96311.22;;;18.00;66.62
39141;BME280;24875;48.436;10.298;2023-08-07T10:34:15;96306.78;;;17.94;68.53
39141;BME280;24875;48.436;10.298;2023-08-07T10:36:42;96312.41;;;18.04;68.39
39141;BME280;24875;48.436;10.298;2023-08-07T10:39:10;96309.53;;;18.05;63.08
39141;BME280;24875;48.436;10.298;2023-08-07T10:41:42;96304.91;;;18.12;64.45
39141;BME280;24875;48.436;10.298;2023-08-07T10:44:18;96302.97;;;18.26;63.42
39141;BME280;24875;48.436;10.298;2023-08-07T10:46:51;96311.88;;;17.95;63.55
39141;BME280;24875;48.436;10.298;2023-08-07T10:49:33;96321.38;;;17.67;63.90
39141;BME280;24875;48.436;10.298;2023-08-07T10:52:07;96322.91;;;17.81;63.43
39141;BME280;24875;48.436;10.298;2023-08-07T10:54:38;96313.03;;;18.41;64.28
39141;BME280;24875;48.436;10.298;2023-08-07T10:57:10;96313.31;;;18.98;63.58
39141;BME280;24875;48.436;10.298;2023-08-07T10:59:37;96304.75;;;18.96;58.38
39141;BME280;24875;48.436;10.298;2023-08-07T11:02:07;96312.13;;;18.65;58.04
39141;BME280;24875;48.436;10.298;2023-08-07T11:04:37;96301.09;;;18.26;57.67
39141;BME280;24875;48.436;10.298;2023-08-07T11:07:05;96313.50;;;18.21;57.47
39141;BME280;24875;48.436;10.298;2023-08-07T11:09:33;96310.66;;;18.33;56.46
39141;BME280;24875;48.436;10.298;2023-08-07T11:12:00;96309.88;;;18.51;58.26
39141;BME280;24875;48.436;10.298;2023-08-07T11:14:26;96300.81;;;18.34;57.21
39141;BME280;24875;48.436;10.298;2023-08-07T11:16:53;96314.94;;;17.99;56.96
39141;BME280;24875;48.436;10.298;2023-08-07T11:19:22;96308.88;;;18.28;57.97
39141;BME280;24875;48.436;10.298;2023-08-07T11:21:49;96311.22;;;18.89;58.37
39141;BME280;24875;48.436;10.298;2023-08-07T11:24:16;96307.38;;;18.49;56.14
39141;BME280;24875;48.436;10.298;2023-08-07T11:26:45;96296.75;;;18.79;56.72
39141;BME280;24875;48.436;10.298;2023-08-07T11:29:16;96296.78;;;18.90;57.13
39141;BME280;24875;48.436;10.298;2023-08-07T11:31:42;96300.00;;;18.51;56.96
39141;BME280;24875;48.436;10.298;2023-08-07T11:34:10;96303.63;;;18.86;59.41
39141;BME280;24875;48.436;10.298;2023-08-07T11:36:41;96311.31;;;18.65;59.09
39141;BME280;24875;48.436;10.298;2023-08-07T11:39:09;96315.47;;;18.43;60.29
39141;BME280;24875;48.436;10.298;2023-08-07T11:41:36;96318.81;;;18.21;60.05
39141;BME280;24875;48.436;10.298;2023-08-07T11:44:03;96313.75;;;18.13;60.47
39141;BME280;24875;48.436;10.298;2023-08-07T11:46:29;96333.66;;;18.52;61.21
39141;BME280;24875;48.436;10.298;2023-08-07T11:48:56;96331.41;;;18.32;61.29
39141;BME280;24875;48.436;10.298;2023-08-07T11:51:23;96322.50;;;18.55;61.12
39141;BME280;24875;48.436;10.298;2023-08-07T11:53:51;96335.88;;;19.02;59.72
39141;BME280;24875;48.436;10.298;2023-08-07T11:56:22;96341.94;;;18.80;61.29
39141;BME280;24875;48.436;10.298;2023-08-07T11:58:50;96355.59;;;19.01;57.68
39141;BME280;24875;48.436;10.298;2023-08-07T12:01:19;96345.13;;;18.53;56.21
39141;BME280;24875;48.436;10.298;2023-08-07T12:03:51;96343.53;;;18.81;56.21
39141;BME280;24875;48.436;10.298;2023-08-07T12:06:18;96348.88;;;18.81;55.98
39141;BME280;24875;48.436;10.298;2023-08-07T12:08:45;96352.34;;;18.52;55.88
39141;BME280;24875;48.436;10.298;2023-08-07T12:11:13;96343.72;;;18.68;56.60
39141;BME280;24875;48.436;10.298;2023-08-07T12:13:41;96364.91;;;18.28;56.62
39141;BME280;24875;48.436;10.298;2023-08-07T12:16:08;96362.16;;;18.34;57.07
39141;BME280;24875;48.436;10.298;2023-08-07T12:18:35;96356.47;;;18.66;59.04
39141;BME280;24875;48.436;10.298;2023-08-07T12:21:06;96368.28;;;18.41;58.41
39141;BME280;24875;48.436;10.298;2023-08-07T12:23:34;96372.50;;;18.31;58.94
39141;BME280;24875;48.436;10.298;2023-08-07T12:26:01;96367.69;;;18.15;58.07
39141;BME280;24875;48.436;10.298;2023-08-07T12:28:29;96378.81;;;18.12;58.56
39141;BME280;24875;48.436;10.298;2023-08-07T12:30:56;96373.75;;;18.04;59.76
39141;BME280;24875;48.436;10.298;2023-08-07T12:33:23;96372.72;;;17.80;58.57
39141;BME280;24875;48.436;10.298;2023-08-07T12:35:49;96371.84;;;17.86;58.32
39141;BME280;24875;48.436;10.298;2023-08-07T12:38:17;96387.69;;;17.81;59.12
39141;BME280;24875;48.436;10.298;2023-08-07T12:40:44;96386.44;;;17.60;59.46
39141;BME280;24875;48.436;10.298;2023-08-07T12:43:11;96388.19;;;17.72;61.09
39141;BME280;24875;48.436;10.298;2023-08-07T12:45:39;96391.38;;;17.56;61.53